Victoria — V7LN2 — position and weather

sailwx.info

Track history (hours):
 
Tides and Currents Weather Stations Pressure Air Temp Water Temp Dewpoint Dewpoint Depression Visibility Wind Speed Wind Dir Waves Ship Positions

Victoria

Last reported at 2018-Jul-09 22:27 UTC. Time now 2018-Jul-20 03:04 UTC.
Position N 49°58' W 010°45'.
Warning: this ship's position is 10 days out of date.

Length 200 m; draft 7.1 m.

Type: Cargo ship. MMSI: 538006304.

Date/timePositionNaut miles runAvg speedWind from/ knotsBaromVisibWave heightAir tempDewpointWater temp
2018-Jul-09 22:27N 49°58' W 010°45'8213.5
2018-Jul-09 16:21N 49°52' W 008°38'513.8
2018-Jul-09 16:00N 49°52' W 008°30'813.5
2018-Jul-09 15:23N 49°51' W 008°18'513.3
2018-Jul-09 15:00N 49°50' W 008°10'713.7
2018-Jul-09 14:29N 49°50' W 007°59'613.4
2018-Jul-09 14:00N 49°49' W 007°49'813.2
2018-Jul-09 13:22N 49°48' W 007°36'1713.0
2018-Jul-09 12:06N 49°47' W 007°10'213.2
2018-Jul-09 11:58N 49°47' W 007°08'613.1
2018-Jul-09 11:31N 49°46' W 006°58'813.0
2018-Jul-09 10:54N 49°45' W 006°46'513.1
2018-Jul-09 10:30N 49°45' W 006°38'713.5
2018-Jul-09 09:59N 49°45' W 006°27'713.4
2018-Jul-09 09:28N 49°45' W 006°17'613.6
2018-Jul-09 09:00N 49°45' W 006°07'713.7
2018-Jul-09 08:30N 49°46' W 005°57'714.0
2018-Jul-09 08:01N 49°47' W 005°46'714.0
2018-Jul-09 07:30N 49°48' W 005°35'714.4
2018-Jul-09 07:00N 49°49' W 005°24'714.4
2018-Jul-09 06:30N 49°50' W 005°13'714.2
2018-Jul-09 06:00N 49°50' W 005°02'713.3
2018-Jul-09 05:30N 49°51' W 004°52'612.7
2018-Jul-09 05:00N 49°52' W 004°42'611.9
2018-Jul-09 04:30N 49°53' W 004°33'611.6
2018-Jul-09 04:00N 49°53' W 004°24'612.6
2018-Jul-09 03:30N 49°54' W 004°14'612.9
2018-Jul-09 03:00N 49°55' W 004°04'612.7
2018-Jul-09 02:30N 49°56' W 003°54'612.5
2018-Jul-09 02:00N 49°57' W 003°45'612.5
2018-Jul-09 01:30N 49°58' W 003°35'612.5
2018-Jul-09 01:00N 49°58' W 003°26'612.8
2018-Jul-09 00:30N 49°59' W 003°16'713.3
2018-Jul-09 00:00N 49°60' W 003°05'713.8
2018-Jul-08 23:30N 50°01' W 002°55'714.1
2018-Jul-08 23:00N 50°03' W 002°44'714.5
2018-Jul-08 22:30N 50°05' W 002°33'1015.0
2018-Jul-08 21:51N 50°07' W 002°18'915.3
2018-Jul-08 21:16N 50°10' W 002°05'1615.1
2018-Jul-08 20:13N 50°14' W 001°41'514.5
2018-Jul-08 19:52N 50°15' W 001°34'714.3
2018-Jul-08 19:23N 50°17' W 001°23'513.8
2018-Jul-08 19:00N 50°18' W 001°15'713.2
2018-Jul-08 18:30N 50°20' W 001°05'612.7
2018-Jul-08 18:00N 50°22' W 000°56'612.1
2018-Jul-08 17:30N 50°23' W 000°46'611.6
2018-Jul-08 17:00N 50°25' W 000°38'611.4
2018-Jul-08 16:30N 50°26' W 000°29'611.4
2018-Jul-08 16:00N 50°28' W 000°21'611.8
2018-Jul-08 15:30N 50°30' W 000°12'612.0
2018-Jul-08 15:00N 50°32' W 000°03'612.3
2018-Jul-08 14:30N 50°33' E 000°07'612.9
2018-Jul-08 14:00N 50°35' E 000°16'713.5
2018-Jul-08 13:30N 50°37' E 000°26'714.0
2018-Jul-08 13:00N 50°40' E 000°37'714.2
2018-Jul-08 12:30N 50°43' E 000°46'714.6
2018-Jul-08 12:00N 50°48' E 000°56'714.8
2018-Jul-08 11:30N 50°52' E 001°05'714.5
2018-Jul-08 11:00N 50°57' E 001°13'714.1
2018-Jul-08 10:30N 51°01' E 001°22'713.8
2018-Jul-08 10:00N 51°06' E 001°31'612.6
2018-Jul-08 09:30N 51°10' E 001°38'612.5
2018-Jul-08 09:00N 51°14' E 001°46'612.3
2018-Jul-08 08:30N 51°19' E 001°51'612.4
2018-Jul-08 08:01N 51°24' E 001°57'611.8
2018-Jul-08 07:30N 51°24' E 002°07'713.2
2018-Jul-08 07:00N 51°21' E 002°16'612.4
2018-Jul-08 06:31N 51°22' E 002°26'612.9
2018-Jul-08 06:00N 51°23' E 002°36'612.1
2018-Jul-08 05:30N 51°22' E 002°46'612.4
2018-Jul-08 05:01N 51°23' E 002°55'612.9
2018-Jul-08 04:30N 51°24' E 003°06'713.5
2018-Jul-08 03:58N 51°25' E 003°17'613.7
2018-Jul-08 03:30N 51°25' E 003°27'713.7
2018-Jul-08 03:01N 51°26' E 003°38'510.3
2018-Jul-08 02:31N 51°24' E 003°45'0 0.3
2018-Jul-08 01:58N 51°24' E 003°45'0 0.0
2018-Jul-08 01:28N 51°24' E 003°45'0 0.0
2018-Jul-08 00:58N 51°24' E 003°45'0 0.0
2018-Jul-08 00:28N 51°24' E 003°45'0 0.0
2018-Jul-07 23:58N 51°24' E 003°45'0 0.0
2018-Jul-07 23:28N 51°24' E 003°45'0 0.0
2018-Jul-07 22:58N 51°24' E 003°45'0 0.0
2018-Jul-07 22:28N 51°24' E 003°45'0 0.0
2018-Jul-07 21:58N 51°24' E 003°45'0 0.2
2018-Jul-07 21:28N 51°24' E 003°45'0 0.3
2018-Jul-07 20:58N 51°24' E 003°45'0 0.1
2018-Jul-07 20:28N 51°24' E 003°45'0 0.0
2018-Jul-07 19:58N 51°24' E 003°45'0 0.0
2018-Jul-07 19:28N 51°24' E 003°45'0 0.0
2018-Jul-07 18:58N 51°24' E 003°45'0 0.0
2018-Jul-07 18:28N 51°24' E 003°45'0 0.1
2018-Jul-07 17:58N 51°24' E 003°45'0 0.0
2018-Jul-07 17:28N 51°24' E 003°45'0 0.0
2018-Jul-07 16:58N 51°24' E 003°45'0 0.0
2018-Jul-07 16:28N 51°24' E 003°45'0 0.0
2018-Jul-07 15:55N 51°24' E 003°45'0 0.0
2018-Jul-07 15:28N 51°24' E 003°45'0 0.2
2018-Jul-07 14:58N 51°24' E 003°45'0 0.2
2018-Jul-07 14:28N 51°24' E 003°45'0 0.1
2018-Jul-07 13:58N 51°24' E 003°45'0 0.0
2018-Jul-07 13:28N 51°24' E 003°45'0 0.1
2018-Jul-07 13:00N 51°24' E 003°45'2 4.7
2018-Jul-07 12:30N 51°25' E 003°42'5 9.2
2018-Jul-07 12:00N 51°26' E 003°35'4 8.9
2018-Jul-07 11:30N 51°29' E 003°30'611.0
2018-Jul-07 11:00N 51°34' E 003°25'612.5
2018-Jul-07 10:30N 51°39' E 003°20'611.4
2018-Jul-07 10:01N 51°44' E 003°16'3 6.3
2018-Jul-07 09:31N 51°47' E 003°18'1 2.6
2018-Jul-07 09:00N 51°48' E 003°19'0 0.0
2018-Jul-07 08:27N 51°48' E 003°19'0 0.0
2018-Jul-07 08:00N 51°48' E 003°19'0 0.0
2018-Jul-07 07:30N 51°48' E 003°19'0 0.0
2018-Jul-07 07:00N 51°48' E 003°19'0 0.1
2018-Jul-07 06:30N 51°48' E 003°19'0 0.1
2018-Jul-07 06:00N 51°48' E 003°19'0 0.1
2018-Jul-07 05:30N 51°48' E 003°19'0 0.1
2018-Jul-07 04:57N 51°48' E 003°19'0 0.0
2018-Jul-07 04:30N 51°48' E 003°19'0 0.1
2018-Jul-07 03:57N 51°48' E 003°19'0 0.0
2018-Jul-07 03:27N 51°48' E 003°19'0 0.0
2018-Jul-07 02:57N 51°48' E 003°19'0 0.0
2018-Jul-07 02:30N 51°48' E 003°19'0 0.0
2018-Jul-07 02:00N 51°48' E 003°19'0 0.0
2018-Jul-07 01:30N 51°48' E 003°19'0 0.0
2018-Jul-07 00:57N 51°48' E 003°19'0 0.0
2018-Jul-07 00:30N 51°48' E 003°19'0 0.0
2018-Jul-07 00:00N 51°48' E 003°19'0 0.0
2018-Jul-06 23:15N 51°48' E 003°19'0 0.1
2018-Jul-06 23:00N 51°48' E 003°19'0 0.3
2018-Jul-06 22:27N 51°48' E 003°19'0 0.6
2018-Jul-06 22:01N 51°48' E 003°20'2 4.4
2018-Jul-06 21:31N 51°48' E 003°16'1 2.9
2018-Jul-06 21:00N 51°46' E 003°16'612.4
2018-Jul-06 20:30N 51°52' E 003°18'612.4
2018-Jul-06 20:00N 51°58' E 003°20'612.1
2018-Jul-06 19:31N 52°04' E 003°22'612.0
2018-Jul-06 19:00N 52°09' E 003°28'612.4
2018-Jul-06 18:30N 52°13' E 003°36'613.0
2018-Jul-06 18:00N 52°17' E 003°44'713.6
2018-Jul-06 17:31N 52°21' E 003°54'713.9
2018-Jul-06 17:00N 52°24' E 004°03'714.4
2018-Jul-06 16:30N 52°29' E 004°13'4 8.7
2018-Jul-06 16:00N 52°32' E 004°18'0 0.4
2018-Jul-06 15:28N 52°32' E 004°18'0 0.0
2018-Jul-06 14:58N 52°32' E 004°18'0 0.0
2018-Jul-06 14:25N 52°32' E 004°18'0 0.0
2018-Jul-06 13:58N 52°32' E 004°18'0 0.0
2018-Jul-06 13:28N 52°32' E 004°18'0 0.0
2018-Jul-06 12:58N 52°32' E 004°18'0 0.0
2018-Jul-06 12:28N 52°32' E 004°18'0 0.0
2018-Jul-06 11:58N 52°32' E 004°19'0 0.1
2018-Jul-06 11:28N 52°32' E 004°19'0 0.2
2018-Jul-06 10:58N 52°32' E 004°19'0 0.1
2018-Jul-06 10:28N 52°32' E 004°18'0 0.0
2018-Jul-06 09:55N 52°32' E 004°18'0 0.0
2018-Jul-06 09:28N 52°32' E 004°18'0 0.0
2018-Jul-06 08:58N 52°32' E 004°18'0 0.0
2018-Jul-06 08:28N 52°32' E 004°18'0 0.0
2018-Jul-06 07:55N 52°32' E 004°18'0 0.0
2018-Jul-06 07:28N 52°32' E 004°18'0 0.1
2018-Jul-06 06:55N 52°32' E 004°19'0 0.2
2018-Jul-06 06:28N 52°32' E 004°19'0 0.2
2018-Jul-06 05:55N 52°32' E 004°18'0 0.0
2018-Jul-06 05:28N 52°32' E 004°18'0 0.0
2018-Jul-06 04:58N 52°32' E 004°18'0 0.0
2018-Jul-06 04:28N 52°32' E 004°18'0 0.0
2018-Jul-06 03:58N 52°32' E 004°18'0 0.0
2018-Jul-06 03:28N 52°32' E 004°18'0 0.0
2018-Jul-06 02:58N 52°32' E 004°18'0 0.0
2018-Jul-06 02:28N 52°32' E 004°18'0 0.0
2018-Jul-06 01:58N 52°32' E 004°18'0 0.0
2018-Jul-06 01:28N 52°32' E 004°18'0 0.0
2018-Jul-06 00:58N 52°32' E 004°18'0 0.1
2018-Jul-06 00:28N 52°32' E 004°18'0 0.0
2018-Jul-05 23:58N 52°32' E 004°18'0 0.1
2018-Jul-05 23:28N 52°32' E 004°19'0 0.1
2018-Jul-05 22:52N 52°32' E 004°19'0 0.1
2018-Jul-05 22:28N 52°32' E 004°19'0 0.1
2018-Jul-05 21:55N 52°32' E 004°19'0 0.1
2018-Jul-05 21:28N 52°32' E 004°18'0 0.1
2018-Jul-05 21:01N 52°32' E 004°18'3 6.8
2018-Jul-05 20:30N 52°30' E 004°23'510.0
2018-Jul-05 20:00N 52°28' E 004°31'3 7.0
2018-Jul-05 19:30N 52°28' E 004°37'1 1.1
2018-Jul-05 19:01N 52°28' E 004°37'3 5.3
2018-Jul-05 18:31N 52°27' E 004°41'3 5.8
2018-Jul-05 18:01N 52°26' E 004°46'2 3.8
2018-Jul-05 17:31N 52°25' E 004°49'1 1.0
2018-Jul-05 16:55N 52°25' E 004°49'0 0.0
2018-Jul-05 16:28N 52°25' E 004°49'0 0.0
2018-Jul-05 15:58N 52°25' E 004°49'0 0.0
2018-Jul-05 15:28N 52°25' E 004°49'0 0.0
2018-Jul-05 14:58N 52°25' E 004°49'0 0.0
2018-Jul-05 13:58N 52°25' E 004°49'0 0.0
2018-Jul-05 13:28N 52°25' E 004°49'0 0.0
2018-Jul-05 12:58N 52°25' E 004°49'0 0.0
2018-Jul-05 12:28N 52°25' E 004°49'0 0.0
2018-Jul-05 11:58N 52°25' E 004°49'0 0.0
2018-Jul-05 11:28N 52°25' E 004°49'0 0.0
2018-Jul-05 10:55N 52°25' E 004°49'0 0.0
2018-Jul-05 10:28N 52°25' E 004°49'0 0.0
2018-Jul-05 09:58N 52°25' E 004°49'0 0.0
2018-Jul-05 09:28N 52°25' E 004°49'0 0.0
2018-Jul-05 08:58N 52°25' E 004°49'0 0.0
2018-Jul-05 08:28N 52°25' E 004°49'0 0.0
2018-Jul-05 07:58N 52°25' E 004°49'0 0.0
2018-Jul-05 07:28N 52°25' E 004°49'0 0.0
2018-Jul-05 06:58N 52°25' E 004°49'0 0.0
2018-Jul-05 06:28N 52°25' E 004°49'0 0.0
2018-Jul-05 05:58N 52°25' E 004°49'0 0.0
2018-Jul-05 05:28N 52°25' E 004°49'0 0.0
2018-Jul-05 04:58N 52°25' E 004°49'0 0.0
2018-Jul-05 04:28N 52°25' E 004°49'0 0.0
2018-Jul-05 03:58N 52°25' E 004°49'0 0.0
2018-Jul-05 03:28N 52°25' E 004°49'0 0.0
2018-Jul-05 02:58N 52°25' E 004°49'0 0.0
2018-Jul-05 02:28N 52°25' E 004°49'0 0.0
2018-Jul-05 01:58N 52°25' E 004°49'0 0.0
2018-Jul-05 01:28N 52°25' E 004°49'0 0.0
2018-Jul-05 00:58N 52°25' E 004°49'0 0.0
2018-Jul-05 00:28N 52°25' E 004°49'0 0.0
2018-Jul-04 23:58N 52°25' E 004°49'0 0.0
2018-Jul-04 23:28N 52°25' E 004°49'0 0.0
2018-Jul-04 22:58N 52°25' E 004°49'0 0.0
2018-Jul-04 22:28N 52°25' E 004°49'0 0.0
2018-Jul-04 21:58N 52°25' E 004°49'0 0.0
2018-Jul-04 21:28N 52°25' E 004°49'0 0.0
2018-Jul-04 20:58N 52°25' E 004°49'0 0.0
2018-Jul-04 20:28N 52°25' E 004°49'0 0.0
2018-Jul-04 19:58N 52°25' E 004°49'0 0.0
2018-Jul-04 19:28N 52°25' E 004°49'0 0.0
2018-Jul-04 18:58N 52°25' E 004°49'0 0.0
2018-Jul-04 18:28N 52°25' E 004°49'0 0.0
2018-Jul-04 17:58N 52°25' E 004°49'0 0.0
2018-Jul-04 17:28N 52°25' E 004°49'0 0.0
2018-Jul-04 16:58N 52°25' E 004°49'0 0.0
2018-Jul-04 16:28N 52°25' E 004°49'0 0.0
2018-Jul-04 15:58N 52°25' E 004°49'0 0.0
2018-Jul-04 15:25N 52°25' E 004°49'0 0.0
2018-Jul-04 14:58N 52°25' E 004°49'0 0.0
2018-Jul-04 14:28N 52°25' E 004°49'0 0.0
2018-Jul-04 13:58N 52°25' E 004°49'0 0.0
2018-Jul-04 13:28N 52°25' E 004°49'0 0.0
2018-Jul-04 12:58N 52°25' E 004°49'0 0.0
2018-Jul-04 12:28N 52°25' E 004°49'0 0.0
2018-Jul-04 11:58N 52°25' E 004°49'0 0.0
2018-Jul-04 11:28N 52°25' E 004°49'0 0.0
2018-Jul-04 10:58N 52°25' E 004°49'0 0.0
2018-Jul-04 10:28N 52°25' E 004°49'0 0.0
2018-Jul-04 09:58N 52°25' E 004°49'0 0.0
2018-Jul-04 09:28N 52°25' E 004°49'0 0.0
2018-Jul-04 08:58N 52°25' E 004°49'0 0.0
2018-Jul-04 08:28N 52°25' E 004°49'0 0.0
2018-Jul-04 07:58N 52°25' E 004°49'0 0.0
2018-Jul-04 07:28N 52°25' E 004°49'0 0.0
2018-Jul-04 06:58N 52°25' E 004°49'0 0.0
2018-Jul-04 06:28N 52°25' E 004°49'0 0.0
2018-Jul-04 05:58N 52°25' E 004°49'0 0.0
2018-Jul-04 05:28N 52°25' E 004°49'0 0.0
2018-Jul-04 04:58N 52°25' E 004°49'0 0.0
2018-Jul-04 04:28N 52°25' E 004°49'0 0.0
2018-Jul-04 03:58N 52°25' E 004°49'0 0.0
2018-Jul-04 03:28N 52°25' E 004°49'0 0.0
2018-Jul-04 02:58N 52°25' E 004°49'0 0.0
2018-Jul-04 02:28N 52°25' E 004°49'0 0.0
2018-Jul-04 01:58N 52°25' E 004°49'0 0.0
2018-Jul-04 01:28N 52°25' E 004°49'0 0.0
2018-Jul-04 00:58N 52°25' E 004°49'0 0.0
2018-Jul-04 00:28N 52°25' E 004°49'0 0.0
2018-Jul-03 23:58N 52°25' E 004°49'0 0.0
2018-Jul-03 23:28N 52°25' E 004°49'0 0.0
2018-Jul-03 22:58N 52°25' E 004°49'0 0.0
2018-Jul-03 22:28N 52°25' E 004°49'0 0.0
2018-Jul-03 21:58N 52°25' E 004°49'0 0.0
2018-Jul-03 21:28N 52°25' E 004°49'0 0.0
2018-Jul-03 20:58N 52°25' E 004°49'0 0.0
2018-Jul-03 20:28N 52°25' E 004°49'0 0.0
2018-Jul-03 19:58N 52°25' E 004°49'0 0.0
2018-Jul-03 19:28N 52°25' E 004°49'0 0.0
2018-Jul-03 18:58N 52°25' E 004°49'0 0.0
2018-Jul-03 18:28N 52°25' E 004°49'0 0.0
2018-Jul-03 17:58N 52°25' E 004°49'0 0.0
2018-Jul-03 17:28N 52°25' E 004°49'0 0.0
2018-Jul-03 16:58N 52°25' E 004°49'0 0.0
2018-Jul-03 16:25N 52°25' E 004°49'0 0.0
2018-Jul-03 15:58N 52°25' E 004°49'0 0.0
2018-Jul-03 15:28N 52°25' E 004°49'0 0.0
2018-Jul-03 14:58N 52°25' E 004°49'0 0.0
2018-Jul-03 14:28N 52°25' E 004°49'0 0.0
2018-Jul-03 13:58N 52°25' E 004°49'0 0.0
2018-Jul-03 13:28N 52°25' E 004°49'0 0.0
2018-Jul-03 12:58N 52°25' E 004°49'0 0.0
2018-Jul-03 12:28N 52°25' E 004°49'0 0.0
2018-Jul-03 11:55N 52°25' E 004°49'0 0.0
2018-Jul-03 11:28N 52°25' E 004°49'0 0.0
2018-Jul-03 10:58N 52°25' E 004°49'0 0.0
2018-Jul-03 10:28N 52°25' E 004°49'0 0.0
2018-Jul-03 09:58N 52°25' E 004°49'0 0.0
2018-Jul-03 09:28N 52°25' E 004°49'0 0.0
2018-Jul-03 08:58N 52°25' E 004°49'0 0.0
2018-Jul-03 08:28N 52°25' E 004°49'0 0.0
2018-Jul-03 07:58N 52°25' E 004°49'0 0.0
2018-Jul-03 07:28N 52°25' E 004°49'0 0.0
2018-Jul-03 06:58N 52°25' E 004°49'0 0.0
2018-Jul-03 06:28N 52°25' E 004°49'0 0.0
2018-Jul-03 05:58N 52°25' E 004°49'0 0.0
2018-Jul-03 05:28N 52°25' E 004°49'0 0.0
2018-Jul-03 04:58N 52°25' E 004°49'0 0.0
2018-Jul-03 04:28N 52°25' E 004°49'0 0.0
2018-Jul-03 03:58N 52°25' E 004°49'0 0.0
2018-Jul-03 03:28N 52°25' E 004°49'0 0.0
2018-Jul-03 02:58N 52°25' E 004°49'0 0.0
2018-Jul-03 02:28N 52°25' E 004°49'0 0.0
2018-Jul-03 01:58N 52°25' E 004°49'0 0.0
2018-Jul-03 01:28N 52°25' E 004°49'0 0.0
2018-Jul-03 00:58N 52°25' E 004°49'0 0.0
2018-Jul-03 00:28N 52°25' E 004°49'0 0.0
2018-Jul-02 23:58N 52°25' E 004°49'0 0.0
2018-Jul-02 23:28N 52°25' E 004°49'0 0.2
2018-Jul-02 23:01N 52°25' E 004°49'2 4.2
2018-Jul-02 22:30N 52°26' E 004°46'4 8.1
2018-Jul-02 22:00N 52°28' E 004°40'2 4.5
2018-Jul-02 21:30N 52°28' E 004°36'1 1.8
2018-Jul-02 21:01N 52°28' E 004°35'5 9.1
2018-Jul-02 20:31N 52°28' E 004°28'3 6.0
2018-Jul-02 20:01N 52°28' E 004°23'0 0.7
2018-Jul-02 19:30N 52°28' E 004°22'2 3.5
2018-Jul-02 19:01N 52°29' E 004°20'5 9.1
2018-Jul-02 18:31N 52°30' E 004°13'612.0
2018-Jul-02 18:00N 52°30' E 004°03'612.0
2018-Jul-02 17:30N 52°30' E 003°53'612.4
2018-Jul-02 17:01N 52°28' E 003°44'714.2
2018-Jul-02 16:30N 52°23' E 003°35'714.0
2018-Jul-02 16:00N 52°18' E 003°27'713.8
2018-Jul-02 15:30N 52°14' E 003°18'713.6
2018-Jul-02 15:00N 52°09' E 003°10'713.5
2018-Jul-02 14:30N 52°04' E 003°03'713.3
2018-Jul-02 14:00N 51°59' E 002°56'612.9
2018-Jul-02 13:30N 51°54' E 002°49'612.5
2018-Jul-02 13:00N 51°50' E 002°42'612.2
2018-Jul-02 12:30N 51°45' E 002°35'611.9
2018-Jul-02 12:00N 51°41' E 002°29'611.8
2018-Jul-02 11:30N 51°36' E 002°23'611.3
2018-Jul-02 11:00N 51°32' E 002°17'611.3
2018-Jul-02 10:30N 51°28' E 002°11'611.0
2018-Jul-02 10:00N 51°23' E 002°06'611.1
2018-Jul-02 09:30N 51°19' E 001°59'611.2
2018-Jul-02 09:00N 51°15' E 001°53'611.2
2018-Jul-02 08:30N 51°11' E 001°47'511.0
2018-Jul-02 08:00N 51°06' E 001°44'611.5
2018-Jul-02 07:30N 51°02' E 001°37'612.0
2018-Jul-02 07:00N 50°58' E 001°31'612.3
2018-Jul-02 06:30N 50°53' E 001°26'613.0
2018-Jul-02 06:00N 50°46' E 001°23'713.0
2018-Jul-02 05:30N 50°41' E 001°18'713.6
2018-Jul-02 05:00N 50°36' E 001°10'713.5
2018-Jul-02 04:30N 50°32' E 001°02'713.1
2018-Jul-02 04:00N 50°29' E 000°53'613.1
2018-Jul-02 03:30N 50°27' E 000°43'713.2
2018-Jul-02 03:00N 50°25' E 000°33'713.2
2018-Jul-02 02:30N 50°23' E 000°23'713.3
2018-Jul-02 02:00N 50°21' E 000°13'713.6
2018-Jul-02 01:30N 50°20' E 000°03'713.9
2018-Jul-02 01:00N 50°18' W 000°08'714.3
2018-Jul-02 00:30N 50°16' W 000°19'814.9
2018-Jul-01 23:59N 50°14' W 000°30'915.4
2018-Jul-01 23:23N 50°12' W 000°44'616.0
2018-Jul-01 23:00N 50°10' W 000°53'1116.4
2018-Jul-01 22:21N 50°07' W 001°10'4716.4
2018-Jul-01 19:28N 49°56' W 002°21'714.2
2018-Jul-01 18:58N 49°54' W 002°32'714.0
2018-Jul-01 18:30N 49°52' W 002°42'713.7
2018-Jul-01 18:00N 49°51' W 002°52'713.5
2018-Jul-01 17:30N 49°50' W 003°02'713.2
2018-Jul-01 17:00N 49°51' W 003°12'612.8
2018-Jul-01 16:30N 49°51' W 003°22'612.7
2018-Jul-01 16:00N 49°51' W 003°32'612.4
2018-Jul-01 15:30N 49°51' W 003°42'612.1
2018-Jul-01 15:00N 49°51' W 003°51'612.1
2018-Jul-01 14:30N 49°52' W 004°00'812.4
2018-Jul-01 13:54N 49°52' W 004°12'1012.5
2018-Jul-01 13:04N 49°53' W 004°28'512.6
2018-Jul-01 12:41N 49°53' W 004°36'212.6
2018-Jul-01 12:30N 49°53' W 004°39'612.5
2018-Jul-01 12:00N 49°53' W 004°49'912.7
2018-Jul-01 11:20N 49°53' W 005°02'412.6
2018-Jul-01 11:00N 49°53' W 005°09'3610.0
2018-Jul-01 07:23N 50°08' W 006°00'513.0
2018-Jul-01 07:00N 50°13' W 005°60'713.0
2018-Jul-01 06:30N 50°19' W 005°59'812.2
2018-Jul-01 05:53N 50°25' W 005°51'512.7
2018-Jul-01 05:30N 50°28' W 005°45'612.7
2018-Jul-01 05:00N 50°32' W 005°38'612.9
2018-Jul-01 04:30N 50°37' W 005°30'713.1
2018-Jul-01 04:00N 50°41' W 005°22'713.3
2018-Jul-01 03:30N 50°45' W 005°14'713.7
2018-Jul-01 03:00N 50°49' W 005°06'713.9
2018-Jul-01 02:31N 50°54' W 004°58'714.3
2018-Jul-01 02:00N 50°58' W 004°49'714.6
2018-Jul-01 01:31N 51°03' W 004°40'714.9
2018-Jul-01 01:00N 51°08' W 004°31'1015.3
2018-Jul-01 00:21N 51°14' W 004°18'3717.0
2018-Jun-30 22:11N 51°21' W 003°20'316.9
2018-Jun-30 21:59N 51°22' W 003°15'612.9
2018-Jun-30 21:30N 51°23' W 003°05'714.1
2018-Jun-30 21:00N 51°27' W 002°57'612.8
2018-Jun-30 20:30N 51°30' W 002°47'2 4.4
2018-Jun-30 19:58N 51°30' W 002°43'0 0.6
2018-Jun-30 19:28N 51°30' W 002°43'0 0.0
2018-Jun-30 18:58N 51°30' W 002°43'0 0.0
2018-Jun-30 18:28N 51°30' W 002°43'0 0.0
2018-Jun-30 17:58N 51°30' W 002°43'0 0.0
2018-Jun-30 17:28N 51°30' W 002°43'0 0.0
2018-Jun-30 16:58N 51°30' W 002°43'0 0.0
2018-Jun-30 16:28N 51°30' W 002°43'0 0.0
2018-Jun-30 15:58N 51°30' W 002°43'0 0.0
2018-Jun-30 15:28N 51°30' W 002°43'0 0.0
2018-Jun-30 14:58N 51°30' W 002°43'0 0.0
2018-Jun-30 14:28N 51°30' W 002°43'0 0.0
2018-Jun-30 13:58N 51°30' W 002°43'0 0.0
2018-Jun-30 13:28N 51°30' W 002°43'0 0.0
2018-Jun-30 12:58N 51°30' W 002°43'0 0.0
2018-Jun-30 12:28N 51°30' W 002°43'0 0.0
2018-Jun-30 11:58N 51°30' W 002°43'0 0.0
2018-Jun-30 11:28N 51°30' W 002°43'0 0.0
2018-Jun-30 10:58N 51°30' W 002°43'0 0.0
2018-Jun-30 10:28N 51°30' W 002°43'0 0.0
2018-Jun-30 09:58N 51°30' W 002°43'0 0.0
2018-Jun-30 09:28N 51°30' W 002°43'0 0.0
2018-Jun-30 08:58N 51°30' W 002°43'0 0.0
2018-Jun-30 08:28N 51°30' W 002°43'0 0.0
2018-Jun-30 07:58N 51°30' W 002°43'0 0.0
2018-Jun-30 07:28N 51°30' W 002°43'0 0.0
2018-Jun-30 06:58N 51°30' W 002°43'0 0.0
2018-Jun-30 06:28N 51°30' W 002°43'0 0.0
2018-Jun-30 05:58N 51°30' W 002°43'0 0.0
2018-Jun-30 05:28N 51°30' W 002°43'0 0.0
2018-Jun-30 04:58N 51°30' W 002°43'0 0.0
2018-Jun-30 04:28N 51°30' W 002°43'0 0.0
2018-Jun-30 03:58N 51°30' W 002°43'0 0.0
2018-Jun-30 03:28N 51°30' W 002°43'0 0.0
2018-Jun-30 02:58N 51°30' W 002°43'0 0.0
2018-Jun-30 02:28N 51°30' W 002°43'0 0.0
2018-Jun-30 01:58N 51°30' W 002°43'0 0.0
2018-Jun-30 01:28N 51°30' W 002°43'0 0.0
2018-Jun-30 00:58N 51°30' W 002°43'0 0.0
2018-Jun-30 00:28N 51°30' W 002°43'0 0.0
2018-Jun-29 23:58N 51°30' W 002°43'0 0.0
2018-Jun-29 23:28N 51°30' W 002°43'0 0.0
2018-Jun-29 22:58N 51°30' W 002°43'0 0.0
2018-Jun-29 22:28N 51°30' W 002°43'  
Track history (hours):
 
Tides and Currents Weather Stations Pressure Air Temp Water Temp Dewpoint Dewpoint Depression Visibility Wind Speed Wind Dir Waves Ship Positions

Victoria

Last reported at 2018-Jul-09 22:27 UTC. Time now 2018-Jul-20 03:04 UTC.
Position N 49°58' W 010°45'.
Warning: this ship's position is 10 days out of date.

Length 200 m; draft 7.1 m.

Type: Cargo ship. MMSI: 538006304.

Date/timePositionNaut miles runAvg speedWind from/ knotsBaromVisibWave heightAir tempDewpointWater temp
2018-Jul-09 22:27N 49°58' W 010°45'8213.5
2018-Jul-09 16:21N 49°52' W 008°38'513.8
2018-Jul-09 16:00N 49°52' W 008°30'813.5
2018-Jul-09 15:23N 49°51' W 008°18'513.3
2018-Jul-09 15:00N 49°50' W 008°10'713.7
2018-Jul-09 14:29N 49°50' W 007°59'613.4
2018-Jul-09 14:00N 49°49' W 007°49'813.2
2018-Jul-09 13:22N 49°48' W 007°36'1713.0
2018-Jul-09 12:06N 49°47' W 007°10'213.2
2018-Jul-09 11:58N 49°47' W 007°08'613.1
2018-Jul-09 11:31N 49°46' W 006°58'813.0
2018-Jul-09 10:54N 49°45' W 006°46'513.1
2018-Jul-09 10:30N 49°45' W 006°38'713.5
2018-Jul-09 09:59N 49°45' W 006°27'713.4
2018-Jul-09 09:28N 49°45' W 006°17'613.6
2018-Jul-09 09:00N 49°45' W 006°07'713.7
2018-Jul-09 08:30N 49°46' W 005°57'714.0
2018-Jul-09 08:01N 49°47' W 005°46'714.0
2018-Jul-09 07:30N 49°48' W 005°35'714.4
2018-Jul-09 07:00N 49°49' W 005°24'714.4
2018-Jul-09 06:30N 49°50' W 005°13'714.2
2018-Jul-09 06:00N 49°50' W 005°02'713.3
2018-Jul-09 05:30N 49°51' W 004°52'612.7
2018-Jul-09 05:00N 49°52' W 004°42'611.9
2018-Jul-09 04:30N 49°53' W 004°33'611.6
2018-Jul-09 04:00N 49°53' W 004°24'612.6
2018-Jul-09 03:30N 49°54' W 004°14'612.9
2018-Jul-09 03:00N 49°55' W 004°04'612.7
2018-Jul-09 02:30N 49°56' W 003°54'612.5
2018-Jul-09 02:00N 49°57' W 003°45'612.5
2018-Jul-09 01:30N 49°58' W 003°35'612.5
2018-Jul-09 01:00N 49°58' W 003°26'612.8
2018-Jul-09 00:30N 49°59' W 003°16'713.3
2018-Jul-09 00:00N 49°60' W 003°05'713.8
2018-Jul-08 23:30N 50°01' W 002°55'714.1
2018-Jul-08 23:00N 50°03' W 002°44'714.5
2018-Jul-08 22:30N 50°05' W 002°33'1015.0
2018-Jul-08 21:51N 50°07' W 002°18'915.3
2018-Jul-08 21:16N 50°10' W 002°05'1615.1
2018-Jul-08 20:13N 50°14' W 001°41'514.5
2018-Jul-08 19:52N 50°15' W 001°34'714.3
2018-Jul-08 19:23N 50°17' W 001°23'513.8
2018-Jul-08 19:00N 50°18' W 001°15'713.2
2018-Jul-08 18:30N 50°20' W 001°05'612.7
2018-Jul-08 18:00N 50°22' W 000°56'612.1
2018-Jul-08 17:30N 50°23' W 000°46'611.6
2018-Jul-08 17:00N 50°25' W 000°38'611.4
2018-Jul-08 16:30N 50°26' W 000°29'611.4
2018-Jul-08 16:00N 50°28' W 000°21'611.8
2018-Jul-08 15:30N 50°30' W 000°12'612.0
2018-Jul-08 15:00N 50°32' W 000°03'612.3
2018-Jul-08 14:30N 50°33' E 000°07'612.9
2018-Jul-08 14:00N 50°35' E 000°16'713.5
2018-Jul-08 13:30N 50°37' E 000°26'714.0
2018-Jul-08 13:00N 50°40' E 000°37'714.2
2018-Jul-08 12:30N 50°43' E 000°46'714.6
2018-Jul-08 12:00N 50°48' E 000°56'714.8
2018-Jul-08 11:30N 50°52' E 001°05'714.5
2018-Jul-08 11:00N 50°57' E 001°13'714.1
2018-Jul-08 10:30N 51°01' E 001°22'713.8
2018-Jul-08 10:00N 51°06' E 001°31'612.6
2018-Jul-08 09:30N 51°10' E 001°38'612.5
2018-Jul-08 09:00N 51°14' E 001°46'612.3
2018-Jul-08 08:30N 51°19' E 001°51'612.4
2018-Jul-08 08:01N 51°24' E 001°57'611.8
2018-Jul-08 07:30N 51°24' E 002°07'713.2
2018-Jul-08 07:00N 51°21' E 002°16'612.4
2018-Jul-08 06:31N 51°22' E 002°26'612.9
2018-Jul-08 06:00N 51°23' E 002°36'612.1
2018-Jul-08 05:30N 51°22' E 002°46'612.4
2018-Jul-08 05:01N 51°23' E 002°55'612.9
2018-Jul-08 04:30N 51°24' E 003°06'713.5
2018-Jul-08 03:58N 51°25' E 003°17'613.7
2018-Jul-08 03:30N 51°25' E 003°27'713.7
2018-Jul-08 03:01N 51°26' E 003°38'510.3
2018-Jul-08 02:31N 51°24' E 003°45'0 0.3
2018-Jul-08 01:58N 51°24' E 003°45'0 0.0
2018-Jul-08 01:28N 51°24' E 003°45'0 0.0
2018-Jul-08 00:58N 51°24' E 003°45'0 0.0
2018-Jul-08 00:28N 51°24' E 003°45'0 0.0
2018-Jul-07 23:58N 51°24' E 003°45'0 0.0
2018-Jul-07 23:28N 51°24' E 003°45'0 0.0
2018-Jul-07 22:58N 51°24' E 003°45'0 0.0
2018-Jul-07 22:28N 51°24' E 003°45'0 0.0
2018-Jul-07 21:58N 51°24' E 003°45'0 0.2
2018-Jul-07 21:28N 51°24' E 003°45'0 0.3
2018-Jul-07 20:58N 51°24' E 003°45'0 0.1
2018-Jul-07 20:28N 51°24' E 003°45'0 0.0
2018-Jul-07 19:58N 51°24' E 003°45'0 0.0
2018-Jul-07 19:28N 51°24' E 003°45'0 0.0
2018-Jul-07 18:58N 51°24' E 003°45'0 0.0
2018-Jul-07 18:28N 51°24' E 003°45'0 0.1
2018-Jul-07 17:58N 51°24' E 003°45'0 0.0
2018-Jul-07 17:28N 51°24' E 003°45'0 0.0
2018-Jul-07 16:58N 51°24' E 003°45'0 0.0
2018-Jul-07 16:28N 51°24' E 003°45'0 0.0
2018-Jul-07 15:55N 51°24' E 003°45'0 0.0
2018-Jul-07 15:28N 51°24' E 003°45'0 0.2
2018-Jul-07 14:58N 51°24' E 003°45'0 0.2
2018-Jul-07 14:28N 51°24' E 003°45'0 0.1
2018-Jul-07 13:58N 51°24' E 003°45'0 0.0
2018-Jul-07 13:28N 51°24' E 003°45'0 0.1
2018-Jul-07 13:00N 51°24' E 003°45'2 4.7
2018-Jul-07 12:30N 51°25' E 003°42'5 9.2
2018-Jul-07 12:00N 51°26' E 003°35'4 8.9
2018-Jul-07 11:30N 51°29' E 003°30'611.0
2018-Jul-07 11:00N 51°34' E 003°25'612.5
2018-Jul-07 10:30N 51°39' E 003°20'611.4
2018-Jul-07 10:01N 51°44' E 003°16'3 6.3
2018-Jul-07 09:31N 51°47' E 003°18'1 2.6
2018-Jul-07 09:00N 51°48' E 003°19'0 0.0
2018-Jul-07 08:27N 51°48' E 003°19'0 0.0
2018-Jul-07 08:00N 51°48' E 003°19'0 0.0
2018-Jul-07 07:30N 51°48' E 003°19'0 0.0
2018-Jul-07 07:00N 51°48' E 003°19'0 0.1
2018-Jul-07 06:30N 51°48' E 003°19'0 0.1
2018-Jul-07 06:00N 51°48' E 003°19'0 0.1
2018-Jul-07 05:30N 51°48' E 003°19'0 0.1
2018-Jul-07 04:57N 51°48' E 003°19'0 0.0
2018-Jul-07 04:30N 51°48' E 003°19'0 0.1
2018-Jul-07 03:57N 51°48' E 003°19'0 0.0
2018-Jul-07 03:27N 51°48' E 003°19'0 0.0
2018-Jul-07 02:57N 51°48' E 003°19'0 0.0
2018-Jul-07 02:30N 51°48' E 003°19'0 0.0
2018-Jul-07 02:00N 51°48' E 003°19'0 0.0
2018-Jul-07 01:30N 51°48' E 003°19'0 0.0
2018-Jul-07 00:57N 51°48' E 003°19'0 0.0
2018-Jul-07 00:30N 51°48' E 003°19'0 0.0
2018-Jul-07 00:00N 51°48' E 003°19'0 0.0
2018-Jul-06 23:15N 51°48' E 003°19'0 0.1
2018-Jul-06 23:00N 51°48' E 003°19'0 0.3
2018-Jul-06 22:27N 51°48' E 003°19'0 0.6
2018-Jul-06 22:01N 51°48' E 003°20'2 4.4
2018-Jul-06 21:31N 51°48' E 003°16'1 2.9
2018-Jul-06 21:00N 51°46' E 003°16'612.4
2018-Jul-06 20:30N 51°52' E 003°18'612.4
2018-Jul-06 20:00N 51°58' E 003°20'612.1
2018-Jul-06 19:31N 52°04' E 003°22'612.0
2018-Jul-06 19:00N 52°09' E 003°28'612.4
2018-Jul-06 18:30N 52°13' E 003°36'613.0
2018-Jul-06 18:00N 52°17' E 003°44'713.6
2018-Jul-06 17:31N 52°21' E 003°54'713.9
2018-Jul-06 17:00N 52°24' E 004°03'714.4
2018-Jul-06 16:30N 52°29' E 004°13'4 8.7
2018-Jul-06 16:00N 52°32' E 004°18'0 0.4
2018-Jul-06 15:28N 52°32' E 004°18'0 0.0
2018-Jul-06 14:58N 52°32' E 004°18'0 0.0
2018-Jul-06 14:25N 52°32' E 004°18'0 0.0
2018-Jul-06 13:58N 52°32' E 004°18'0 0.0
2018-Jul-06 13:28N 52°32' E 004°18'0 0.0
2018-Jul-06 12:58N 52°32' E 004°18'0 0.0
2018-Jul-06 12:28N 52°32' E 004°18'0 0.0
2018-Jul-06 11:58N 52°32' E 004°19'0 0.1
2018-Jul-06 11:28N 52°32' E 004°19'0 0.2
2018-Jul-06 10:58N 52°32' E 004°19'0 0.1
2018-Jul-06 10:28N 52°32' E 004°18'0 0.0
2018-Jul-06 09:55N 52°32' E 004°18'0 0.0
2018-Jul-06 09:28N 52°32' E 004°18'0 0.0
2018-Jul-06 08:58N 52°32' E 004°18'0 0.0
2018-Jul-06 08:28N 52°32' E 004°18'0 0.0
2018-Jul-06 07:55N 52°32' E 004°18'0 0.0
2018-Jul-06 07:28N 52°32' E 004°18'0 0.1
2018-Jul-06 06:55N 52°32' E 004°19'0 0.2
2018-Jul-06 06:28N 52°32' E 004°19'0 0.2
2018-Jul-06 05:55N 52°32' E 004°18'0 0.0
2018-Jul-06 05:28N 52°32' E 004°18'0 0.0
2018-Jul-06 04:58N 52°32' E 004°18'0 0.0
2018-Jul-06 04:28N 52°32' E 004°18'0 0.0
2018-Jul-06 03:58N 52°32' E 004°18'0 0.0
2018-Jul-06 03:28N 52°32' E 004°18'0 0.0
2018-Jul-06 02:58N 52°32' E 004°18'0 0.0
2018-Jul-06 02:28N 52°32' E 004°18'0 0.0
2018-Jul-06 01:58N 52°32' E 004°18'0 0.0
2018-Jul-06 01:28N 52°32' E 004°18'0 0.0
2018-Jul-06 00:58N 52°32' E 004°18'0 0.1
2018-Jul-06 00:28N 52°32' E 004°18'0 0.0
2018-Jul-05 23:58N 52°32' E 004°18'0 0.1
2018-Jul-05 23:28N 52°32' E 004°19'0 0.1
2018-Jul-05 22:52N 52°32' E 004°19'0 0.1
2018-Jul-05 22:28N 52°32' E 004°19'0 0.1
2018-Jul-05 21:55N 52°32' E 004°19'0 0.1
2018-Jul-05 21:28N 52°32' E 004°18'0 0.1
2018-Jul-05 21:01N 52°32' E 004°18'3 6.8
2018-Jul-05 20:30N 52°30' E 004°23'510.0
2018-Jul-05 20:00N 52°28' E 004°31'3 7.0
2018-Jul-05 19:30N 52°28' E 004°37'1 1.1
2018-Jul-05 19:01N 52°28' E 004°37'3 5.3
2018-Jul-05 18:31N 52°27' E 004°41'3 5.8
2018-Jul-05 18:01N 52°26' E 004°46'2 3.8
2018-Jul-05 17:31N 52°25' E 004°49'1 1.0
2018-Jul-05 16:55N 52°25' E 004°49'0 0.0
2018-Jul-05 16:28N 52°25' E 004°49'0 0.0
2018-Jul-05 15:58N 52°25' E 004°49'0 0.0
2018-Jul-05 15:28N 52°25' E 004°49'0 0.0
2018-Jul-05 14:58N 52°25' E 004°49'0 0.0
2018-Jul-05 13:58N 52°25' E 004°49'0 0.0
2018-Jul-05 13:28N 52°25' E 004°49'0 0.0
2018-Jul-05 12:58N 52°25' E 004°49'0 0.0
2018-Jul-05 12:28N 52°25' E 004°49'0 0.0
2018-Jul-05 11:58N 52°25' E 004°49'0 0.0
2018-Jul-05 11:28N 52°25' E 004°49'0 0.0
2018-Jul-05 10:55N 52°25' E 004°49'0 0.0
2018-Jul-05 10:28N 52°25' E 004°49'0 0.0
2018-Jul-05 09:58N 52°25' E 004°49'0 0.0
2018-Jul-05 09:28N 52°25' E 004°49'0 0.0
2018-Jul-05 08:58N 52°25' E 004°49'0 0.0
2018-Jul-05 08:28N 52°25' E 004°49'0 0.0
2018-Jul-05 07:58N 52°25' E 004°49'0 0.0
2018-Jul-05 07:28N 52°25' E 004°49'0 0.0
2018-Jul-05 06:58N 52°25' E 004°49'0 0.0
2018-Jul-05 06:28N 52°25' E 004°49'0 0.0
2018-Jul-05 05:58N 52°25' E 004°49'0 0.0
2018-Jul-05 05:28N 52°25' E 004°49'0 0.0
2018-Jul-05 04:58N 52°25' E 004°49'0 0.0
2018-Jul-05 04:28N 52°25' E 004°49'0 0.0
2018-Jul-05 03:58N 52°25' E 004°49'0 0.0
2018-Jul-05 03:28N 52°25' E 004°49'0 0.0
2018-Jul-05 02:58N 52°25' E 004°49'0 0.0
2018-Jul-05 02:28N 52°25' E 004°49'0 0.0
2018-Jul-05 01:58N 52°25' E 004°49'0 0.0
2018-Jul-05 01:28N 52°25' E 004°49'0 0.0
2018-Jul-05 00:58N 52°25' E 004°49'0 0.0
2018-Jul-05 00:28N 52°25' E 004°49'0 0.0
2018-Jul-04 23:58N 52°25' E 004°49'0 0.0
2018-Jul-04 23:28N 52°25' E 004°49'0 0.0
2018-Jul-04 22:58N 52°25' E 004°49'0 0.0
2018-Jul-04 22:28N 52°25' E 004°49'0 0.0
2018-Jul-04 21:58N 52°25' E 004°49'0 0.0
2018-Jul-04 21:28N 52°25' E 004°49'0 0.0
2018-Jul-04 20:58N 52°25' E 004°49'0 0.0
2018-Jul-04 20:28N 52°25' E 004°49'0 0.0
2018-Jul-04 19:58N 52°25' E 004°49'0 0.0
2018-Jul-04 19:28N 52°25' E 004°49'0 0.0
2018-Jul-04 18:58N 52°25' E 004°49'0 0.0
2018-Jul-04 18:28N 52°25' E 004°49'0 0.0
2018-Jul-04 17:58N 52°25' E 004°49'0 0.0
2018-Jul-04 17:28N 52°25' E 004°49'0 0.0
2018-Jul-04 16:58N 52°25' E 004°49'0 0.0
2018-Jul-04 16:28N 52°25' E 004°49'0 0.0
2018-Jul-04 15:58N 52°25' E 004°49'0 0.0
2018-Jul-04 15:25N 52°25' E 004°49'0 0.0
2018-Jul-04 14:58N 52°25' E 004°49'0 0.0
2018-Jul-04 14:28N 52°25' E 004°49'0 0.0
2018-Jul-04 13:58N 52°25' E 004°49'0 0.0
2018-Jul-04 13:28N 52°25' E 004°49'0 0.0
2018-Jul-04 12:58N 52°25' E 004°49'0 0.0
2018-Jul-04 12:28N 52°25' E 004°49'0 0.0
2018-Jul-04 11:58N 52°25' E 004°49'0 0.0
2018-Jul-04 11:28N 52°25' E 004°49'0 0.0
2018-Jul-04 10:58N 52°25' E 004°49'0 0.0
2018-Jul-04 10:28N 52°25' E 004°49'0 0.0
2018-Jul-04 09:58N 52°25' E 004°49'0 0.0
2018-Jul-04 09:28N 52°25' E 004°49'0 0.0
2018-Jul-04 08:58N 52°25' E 004°49'0 0.0
2018-Jul-04 08:28N 52°25' E 004°49'0 0.0
2018-Jul-04 07:58N 52°25' E 004°49'0 0.0
2018-Jul-04 07:28N 52°25' E 004°49'0 0.0
2018-Jul-04 06:58N 52°25' E 004°49'0 0.0
2018-Jul-04 06:28N 52°25' E 004°49'0 0.0
2018-Jul-04 05:58N 52°25' E 004°49'0 0.0
2018-Jul-04 05:28N 52°25' E 004°49'0 0.0
2018-Jul-04 04:58N 52°25' E 004°49'0 0.0
2018-Jul-04 04:28N 52°25' E 004°49'0 0.0
2018-Jul-04 03:58N 52°25' E 004°49'0 0.0
2018-Jul-04 03:28N 52°25' E 004°49'0 0.0
2018-Jul-04 02:58N 52°25' E 004°49'0 0.0
2018-Jul-04 02:28N 52°25' E 004°49'0 0.0
2018-Jul-04 01:58N 52°25' E 004°49'0 0.0
2018-Jul-04 01:28N 52°25' E 004°49'0 0.0
2018-Jul-04 00:58N 52°25' E 004°49'0 0.0
2018-Jul-04 00:28N 52°25' E 004°49'0 0.0
2018-Jul-03 23:58N 52°25' E 004°49'0 0.0
2018-Jul-03 23:28N 52°25' E 004°49'0 0.0
2018-Jul-03 22:58N 52°25' E 004°49'0 0.0
2018-Jul-03 22:28N 52°25' E 004°49'0 0.0
2018-Jul-03 21:58N 52°25' E 004°49'0 0.0
2018-Jul-03 21:28N 52°25' E 004°49'0 0.0
2018-Jul-03 20:58N 52°25' E 004°49'0 0.0
2018-Jul-03 20:28N 52°25' E 004°49'0 0.0
2018-Jul-03 19:58N 52°25' E 004°49'0 0.0
2018-Jul-03 19:28N 52°25' E 004°49'0 0.0
2018-Jul-03 18:58N 52°25' E 004°49'0 0.0
2018-Jul-03 18:28N 52°25' E 004°49'0 0.0
2018-Jul-03 17:58N 52°25' E 004°49'0 0.0
2018-Jul-03 17:28N 52°25' E 004°49'0 0.0
2018-Jul-03 16:58N 52°25' E 004°49'0 0.0
2018-Jul-03 16:25N 52°25' E 004°49'0 0.0
2018-Jul-03 15:58N 52°25' E 004°49'0 0.0
2018-Jul-03 15:28N 52°25' E 004°49'0 0.0
2018-Jul-03 14:58N 52°25' E 004°49'0 0.0
2018-Jul-03 14:28N 52°25' E 004°49'0 0.0
2018-Jul-03 13:58N 52°25' E 004°49'0 0.0
2018-Jul-03 13:28N 52°25' E 004°49'0 0.0
2018-Jul-03 12:58N 52°25' E 004°49'0 0.0
2018-Jul-03 12:28N 52°25' E 004°49'0 0.0
2018-Jul-03 11:55N 52°25' E 004°49'0 0.0
2018-Jul-03 11:28N 52°25' E 004°49'0 0.0
2018-Jul-03 10:58N 52°25' E 004°49'0 0.0
2018-Jul-03 10:28N 52°25' E 004°49'0 0.0
2018-Jul-03 09:58N 52°25' E 004°49'0 0.0
2018-Jul-03 09:28N 52°25' E 004°49'0 0.0
2018-Jul-03 08:58N 52°25' E 004°49'0 0.0
2018-Jul-03 08:28N 52°25' E 004°49'0 0.0
2018-Jul-03 07:58N 52°25' E 004°49'0 0.0
2018-Jul-03 07:28N 52°25' E 004°49'0 0.0
2018-Jul-03 06:58N 52°25' E 004°49'0 0.0
2018-Jul-03 06:28N 52°25' E 004°49'0 0.0
2018-Jul-03 05:58N 52°25' E 004°49'0 0.0
2018-Jul-03 05:28N 52°25' E 004°49'0 0.0
2018-Jul-03 04:58N 52°25' E 004°49'0 0.0
2018-Jul-03 04:28N 52°25' E 004°49'0 0.0
2018-Jul-03 03:58N 52°25' E 004°49'0 0.0
2018-Jul-03 03:28N 52°25' E 004°49'0 0.0
2018-Jul-03 02:58N 52°25' E 004°49'0 0.0
2018-Jul-03 02:28N 52°25' E 004°49'0 0.0
2018-Jul-03 01:58N 52°25' E 004°49'0 0.0
2018-Jul-03 01:28N 52°25' E 004°49'0 0.0
2018-Jul-03 00:58N 52°25' E 004°49'0 0.0
2018-Jul-03 00:28N 52°25' E 004°49'0 0.0
2018-Jul-02 23:58N 52°25' E 004°49'0 0.0
2018-Jul-02 23:28N 52°25' E 004°49'0 0.2
2018-Jul-02 23:01N 52°25' E 004°49'2 4.2
2018-Jul-02 22:30N 52°26' E 004°46'4 8.1
2018-Jul-02 22:00N 52°28' E 004°40'2 4.5
2018-Jul-02 21:30N 52°28' E 004°36'1 1.8
2018-Jul-02 21:01N 52°28' E 004°35'5 9.1
2018-Jul-02 20:31N 52°28' E 004°28'3 6.0
2018-Jul-02 20:01N 52°28' E 004°23'0 0.7
2018-Jul-02 19:30N 52°28' E 004°22'2 3.5
2018-Jul-02 19:01N 52°29' E 004°20'5 9.1
2018-Jul-02 18:31N 52°30' E 004°13'612.0
2018-Jul-02 18:00N 52°30' E 004°03'612.0
2018-Jul-02 17:30N 52°30' E 003°53'612.4
2018-Jul-02 17:01N 52°28' E 003°44'714.2
2018-Jul-02 16:30N 52°23' E 003°35'714.0
2018-Jul-02 16:00N 52°18' E 003°27'713.8
2018-Jul-02 15:30N 52°14' E 003°18'713.6
2018-Jul-02 15:00N 52°09' E 003°10'713.5
2018-Jul-02 14:30N 52°04' E 003°03'713.3
2018-Jul-02 14:00N 51°59' E 002°56'612.9
2018-Jul-02 13:30N 51°54' E 002°49'612.5
2018-Jul-02 13:00N 51°50' E 002°42'612.2
2018-Jul-02 12:30N 51°45' E 002°35'611.9
2018-Jul-02 12:00N 51°41' E 002°29'611.8
2018-Jul-02 11:30N 51°36' E 002°23'611.3
2018-Jul-02 11:00N 51°32' E 002°17'611.3
2018-Jul-02 10:30N 51°28' E 002°11'611.0
2018-Jul-02 10:00N 51°23' E 002°06'611.1
2018-Jul-02 09:30N 51°19' E 001°59'611.2
2018-Jul-02 09:00N 51°15' E 001°53'611.2
2018-Jul-02 08:30N 51°11' E 001°47'511.0
2018-Jul-02 08:00N 51°06' E 001°44'611.5
2018-Jul-02 07:30N 51°02' E 001°37'612.0
2018-Jul-02 07:00N 50°58' E 001°31'612.3
2018-Jul-02 06:30N 50°53' E 001°26'613.0
2018-Jul-02 06:00N 50°46' E 001°23'713.0
2018-Jul-02 05:30N 50°41' E 001°18'713.6
2018-Jul-02 05:00N 50°36' E 001°10'713.5
2018-Jul-02 04:30N 50°32' E 001°02'713.1
2018-Jul-02 04:00N 50°29' E 000°53'613.1
2018-Jul-02 03:30N 50°27' E 000°43'713.2
2018-Jul-02 03:00N 50°25' E 000°33'713.2
2018-Jul-02 02:30N 50°23' E 000°23'713.3
2018-Jul-02 02:00N 50°21' E 000°13'713.6
2018-Jul-02 01:30N 50°20' E 000°03'713.9
2018-Jul-02 01:00N 50°18' W 000°08'714.3
2018-Jul-02 00:30N 50°16' W 000°19'814.9
2018-Jul-01 23:59N 50°14' W 000°30'915.4
2018-Jul-01 23:23N 50°12' W 000°44'616.0
2018-Jul-01 23:00N 50°10' W 000°53'1116.4
2018-Jul-01 22:21N 50°07' W 001°10'4716.4
2018-Jul-01 19:28N 49°56' W 002°21'714.2
2018-Jul-01 18:58N 49°54' W 002°32'714.0
2018-Jul-01 18:30N 49°52' W 002°42'713.7
2018-Jul-01 18:00N 49°51' W 002°52'713.5
2018-Jul-01 17:30N 49°50' W 003°02'713.2
2018-Jul-01 17:00N 49°51' W 003°12'612.8
2018-Jul-01 16:30N 49°51' W 003°22'612.7
2018-Jul-01 16:00N 49°51' W 003°32'612.4
2018-Jul-01 15:30N 49°51' W 003°42'612.1
2018-Jul-01 15:00N 49°51' W 003°51'612.1
2018-Jul-01 14:30N 49°52' W 004°00'812.4
2018-Jul-01 13:54N 49°52' W 004°12'1012.5
2018-Jul-01 13:04N 49°53' W 004°28'512.6
2018-Jul-01 12:41N 49°53' W 004°36'212.6
2018-Jul-01 12:30N 49°53' W 004°39'612.5
2018-Jul-01 12:00N 49°53' W 004°49'912.7
2018-Jul-01 11:20N 49°53' W 005°02'412.6
2018-Jul-01 11:00N 49°53' W 005°09'3610.0
2018-Jul-01 07:23N 50°08' W 006°00'513.0
2018-Jul-01 07:00N 50°13' W 005°60'713.0
2018-Jul-01 06:30N 50°19' W 005°59'812.2
2018-Jul-01 05:53N 50°25' W 005°51'512.7
2018-Jul-01 05:30N 50°28' W 005°45'612.7
2018-Jul-01 05:00N 50°32' W 005°38'612.9
2018-Jul-01 04:30N 50°37' W 005°30'713.1
2018-Jul-01 04:00N 50°41' W 005°22'713.3
2018-Jul-01 03:30N 50°45' W 005°14'713.7
2018-Jul-01 03:00N 50°49' W 005°06'713.9
2018-Jul-01 02:31N 50°54' W 004°58'714.3
2018-Jul-01 02:00N 50°58' W 004°49'714.6
2018-Jul-01 01:31N 51°03' W 004°40'714.9
2018-Jul-01 01:00N 51°08' W 004°31'1015.3
2018-Jul-01 00:21N 51°14' W 004°18'3717.0
2018-Jun-30 22:11N 51°21' W 003°20'316.9
2018-Jun-30 21:59N 51°22' W 003°15'612.9
2018-Jun-30 21:30N 51°23' W 003°05'714.1
2018-Jun-30 21:00N 51°27' W 002°57'612.8
2018-Jun-30 20:30N 51°30' W 002°47'2 4.4
2018-Jun-30 19:58N 51°30' W 002°43'0 0.6
2018-Jun-30 19:28N 51°30' W 002°43'0 0.0
2018-Jun-30 18:58N 51°30' W 002°43'0 0.0
2018-Jun-30 18:28N 51°30' W 002°43'0 0.0
2018-Jun-30 17:58N 51°30' W 002°43'0 0.0
2018-Jun-30 17:28N 51°30' W 002°43'0 0.0
2018-Jun-30 16:58N 51°30' W 002°43'0 0.0
2018-Jun-30 16:28N 51°30' W 002°43'0 0.0
2018-Jun-30 15:58N 51°30' W 002°43'0 0.0
2018-Jun-30 15:28N 51°30' W 002°43'0 0.0
2018-Jun-30 14:58N 51°30' W 002°43'0 0.0
2018-Jun-30 14:28N 51°30' W 002°43'0 0.0
2018-Jun-30 13:58N 51°30' W 002°43'0 0.0
2018-Jun-30 13:28N 51°30' W 002°43'0 0.0
2018-Jun-30 12:58N 51°30' W 002°43'0 0.0
2018-Jun-30 12:28N 51°30' W 002°43'0 0.0
2018-Jun-30 11:58N 51°30' W 002°43'0 0.0
2018-Jun-30 11:28N 51°30' W 002°43'0 0.0
2018-Jun-30 10:58N 51°30' W 002°43'0 0.0
2018-Jun-30 10:28N 51°30' W 002°43'0 0.0
2018-Jun-30 09:58N 51°30' W 002°43'0 0.0
2018-Jun-30 09:28N 51°30' W 002°43'0 0.0
2018-Jun-30 08:58N 51°30' W 002°43'0 0.0
2018-Jun-30 08:28N 51°30' W 002°43'0 0.0
2018-Jun-30 07:58N 51°30' W 002°43'0 0.0
2018-Jun-30 07:28N 51°30' W 002°43'0 0.0
2018-Jun-30 06:58N 51°30' W 002°43'0 0.0
2018-Jun-30 06:28N 51°30' W 002°43'0 0.0
2018-Jun-30 05:58N 51°30' W 002°43'0 0.0
2018-Jun-30 05:28N 51°30' W 002°43'0 0.0
2018-Jun-30 04:58N 51°30' W 002°43'0 0.0
2018-Jun-30 04:28N 51°30' W 002°43'0 0.0
2018-Jun-30 03:58N 51°30' W 002°43'0 0.0
2018-Jun-30 03:28N 51°30' W 002°43'0 0.0
2018-Jun-30 02:58N 51°30' W 002°43'0 0.0
2018-Jun-30 02:28N 51°30' W 002°43'0 0.0
2018-Jun-30 01:58N 51°30' W 002°43'0 0.0
2018-Jun-30 01:28N 51°30' W 002°43'0 0.0
2018-Jun-30 00:58N 51°30' W 002°43'0 0.0
2018-Jun-30 00:28N 51°30' W 002°43'0 0.0
2018-Jun-29 23:58N 51°30' W 002°43'0 0.0
2018-Jun-29 23:28N 51°30' W 002°43'0 0.0
2018-Jun-29 22:58N 51°30' W 002°43'0 0.0
2018-Jun-29 22:28N 51°30' W 002°43'  

Dump ship's entire track history